Time;durP1;ratioP1;P1;durP2;ratioP2;P2;SDS_P1;SDS_P2;PMS_P1;PMS_P2;Temp;Humidity;BMP_temperature;BMP_pressure;BME280_temperature;BME280_humidity;BME280_pressure;Samples;Min_cycle;Max_cycle;Signal;HPM_P1;HPM_P2
2022/03/27 00:00:48;;;;;;;24.30;13.97;;;8.70;99.90;;;;;;5070816;28;20412;-51
2022/03/27 00:03:14;;;;;;;18.27;13.30;;;8.60;99.90;;;;;;5070989;28;20432;-52
2022/03/27 00:05:41;;;;;;;15.93;13.00;;;8.60;99.90;;;;;;5071089;28;20972;-51
2022/03/27 00:08:09;;;;;;;17.93;13.73;;;8.60;99.90;;;;;;5071174;28;20460;-52
2022/03/27 00:13:18;;;;;;;16.17;13.23;;;8.50;99.90;;;;;;5070909;28;20434;-52
2022/03/27 00:15:44;;;;;;;18.33;14.13;;;8.50;99.90;;;;;;5070946;28;20464;-52
2022/03/27 00:18:11;;;;;;;18.60;13.50;;;8.40;99.90;;;;;;5071167;28;20437;-51
2022/03/27 00:20:37;;;;;;;17.97;13.77;;;8.40;99.90;;;;;;5070968;28;20440;-51
2022/03/27 00:23:04;;;;;;;16.77;13.60;;;8.40;99.90;;;;;;5071101;28;20433;-51
2022/03/27 00:25:31;;;;;;;16.13;13.40;;;8.40;99.90;;;;;;5073028;28;20481;-51
2022/03/27 00:27:59;;;;;;;17.03;13.97;;;8.40;99.90;;;;;;5075120;28;20435;-51
2022/03/27 00:30:25;;;;;;;14.83;13.30;;;8.40;99.90;;;;;;5073345;28;20420;-52
2022/03/27 00:32:52;;;;;;;18.50;13.70;;;8.30;99.90;;;;;;5074726;28;20832;-52
2022/03/27 00:35:19;;;;;;;15.27;13.20;;;8.30;99.90;;;;;;5074864;28;20443;-51
2022/03/27 00:37:45;;;;;;;15.30;13.20;;;8.30;99.90;;;;;;5074803;28;20411;-51
2022/03/27 00:40:14;;;;;;;18.40;15.50;;;8.30;99.90;;;;;;5074656;28;20792;-51
2022/03/27 00:42:42;;;;;;;16.40;13.93;;;8.20;99.90;;;;;;5074804;28;20430;-51
2022/03/27 00:45:11;;;;;;;17.60;13.73;;;8.20;99.90;;;;;;5074656;28;20482;-51
2022/03/27 00:47:37;;;;;;;17.20;13.77;;;8.20;99.90;;;;;;5073563;28;20803;-51
2022/03/27 00:50:05;;;;;;;14.53;13.03;;;8.20;99.90;;;;;;5074262;28;20863;-51
2022/03/27 00:52:32;;;;;;;18.50;14.23;;;8.20;99.90;;;;;;5074668;28;20436;-52
2022/03/27 00:55:00;;;;;;;17.70;13.10;;;8.20;99.90;;;;;;5074710;28;20456;-51
2022/03/27 00:57:27;;;;;;;17.50;14.07;;;8.10;99.90;;;;;;5074634;28;20432;-51
2022/03/27 00:59:54;;;;;;;20.20;15.23;;;8.10;99.90;;;;;;5074169;28;20474;-51
2022/03/27 01:02:22;;;;;;;19.37;15.90;;;8.10;99.90;;;;;;5074082;28;20432;-51
2022/03/27 01:04:49;;;;;;;23.63;16.07;;;8.10;99.90;;;;;;5072698;28;20986;-52
2022/03/27 01:07:18;;;;;;;18.17;14.70;;;8.00;99.90;;;;;;5074256;28;20743;-51
2022/03/27 01:09:44;;;;;;;24.80;17.13;;;8.00;99.90;;;;;;5073934;28;20440;-51
2022/03/27 01:12:21;;;;;;;22.57;17.87;;;8.00;99.90;;;;;;5074277;28;20985;-51
2022/03/27 01:14:47;;;;;;;27.33;17.57;;;8.00;99.90;;;;;;5074101;28;20608;-51
2022/03/27 01:17:16;;;;;;;24.23;18.73;;;7.90;99.90;;;;;;5074095;28;20441;-51
2022/03/27 01:19:46;;;;;;;20.20;17.43;;;7.90;99.90;;;;;;5073834;28;20898;-50
2022/03/27 01:22:15;;;;;;;19.20;16.30;;;7.90;99.90;;;;;;5074045;28;20428;-51
2022/03/27 01:24:42;;;;;;;19.90;16.87;;;7.80;99.90;;;;;;5074106;28;20506;-51
2022/03/27 01:27:09;;;;;;;25.27;18.27;;;7.90;99.90;;;;;;5074343;28;20435;-51
2022/03/27 01:29:36;;;;;;;18.30;14.63;;;7.80;99.90;;;;;;5073563;28;20473;-51
2022/03/27 01:32:06;;;;;;;20.23;17.50;;;7.80;99.90;;;;;;5073495;28;20942;-51
2022/03/27 01:34:33;;;;;;;23.40;16.83;;;7.80;99.90;;;;;;5073803;28;20822;-51
2022/03/27 01:37:03;;;;;;;20.90;15.57;;;7.70;99.90;;;;;;5073225;28;20524;-51
2022/03/27 01:39:31;;;;;;;19.30;16.00;;;7.70;99.90;;;;;;5073501;28;20432;-51
2022/03/27 01:41:57;;;;;;;18.83;16.83;;;7.70;99.90;;;;;;5074044;28;20422;-51
2022/03/27 01:44:24;;;;;;;19.60;16.43;;;7.70;99.90;;;;;;5073971;28;20431;-51
2022/03/27 01:46:50;;;;;;;19.63;15.77;;;7.60;99.90;;;;;;5073949;28;20486;-51
2022/03/27 01:49:19;;;;;;;18.57;16.27;;;7.60;99.90;;;;;;5073527;28;20776;-51
2022/03/27 01:51:47;;;;;;;23.63;15.80;;;7.50;99.90;;;;;;5073723;28;20452;-51
2022/03/27 01:54:14;;;;;;;21.50;16.50;;;7.60;99.90;;;;;;5073366;28;20472;-51
2022/03/27 01:56:42;;;;;;;18.73;16.23;;;7.50;99.90;;;;;;5073706;28;20430;-51
2022/03/27 01:59:10;;;;;;;20.30;16.70;;;7.50;99.90;;;;;;5073026;28;21035;-52
2022/03/27 02:01:38;;;;;;;22.17;16.23;;;7.50;99.90;;;;;;5072993;28;20437;-51
2022/03/27 02:04:05;;;;;;;20.80;16.60;;;7.50;99.90;;;;;;5073339;28;20454;-51
2022/03/27 02:06:32;;;;;;;22.90;17.47;;;7.40;99.90;;;;;;5073280;28;20477;-51
2022/03/27 02:08:59;;;;;;;18.70;15.60;;;7.40;99.90;;;;;;5073004;28;20465;-51
2022/03/27 02:11:26;;;;;;;22.07;17.50;;;7.40;99.90;;;;;;5073339;28;20443;-51
2022/03/27 02:13:54;;;;;;;20.27;16.17;;;7.40;99.90;;;;;;5072945;28;20438;-51
2022/03/27 02:16:21;;;;;;;23.43;18.23;;;7.30;99.90;;;;;;5072703;28;20425;-51
2022/03/27 02:18:47;;;;;;;19.77;16.87;;;7.30;99.90;;;;;;5072884;28;20435;-51
2022/03/27 02:21:14;;;;;;;23.53;18.53;;;7.30;99.90;;;;;;5073534;28;20440;-51
2022/03/27 02:23:41;;;;;;;26.00;17.60;;;7.30;99.90;;;;;;5072984;28;20417;-51
2022/03/27 02:26:07;;;;;;;25.40;20.80;;;7.20;99.90;;;;;;5072897;28;20540;-51
2022/03/27 02:28:34;;;;;;;27.97;19.40;;;7.30;99.90;;;;;;5072607;28;20410;-51
2022/03/27 02:31:03;;;;;;;27.60;21.93;;;7.20;99.90;;;;;;5072435;28;20440;-51
2022/03/27 02:33:30;;;;;;;32.50;22.40;;;7.20;99.90;;;;;;5072530;28;20440;-51
2022/03/27 02:35:56;;;;;;;28.63;22.70;;;7.20;99.90;;;;;;5072676;28;20470;-51
2022/03/27 02:38:23;;;;;;;31.37;22.53;;;7.20;99.90;;;;;;5072451;28;20443;-51
2022/03/27 02:40:50;;;;;;;27.37;20.80;;;7.20;99.90;;;;;;5072607;28;20443;-51
2022/03/27 02:43:17;;;;;;;26.87;20.50;;;7.20;99.90;;;;;;5072784;28;20782;-52
2022/03/27 02:45:43;;;;;;;25.70;20.83;;;7.10;99.90;;;;;;5072474;28;20556;-51
2022/03/27 02:48:12;;;;;;;26.33;20.93;;;7.10;99.90;;;;;;5071467;28;20434;-51
2022/03/27 02:50:39;;;;;;;21.23;19.03;;;7.10;99.90;;;;;;5072127;28;20512;-51
2022/03/27 02:53:06;;;;;;;22.80;18.73;;;7.10;99.90;;;;;;5072412;28;20405;-51
2022/03/27 02:55:32;;;;;;;29.50;21.50;;;7.10;99.90;;;;;;5072446;28;20555;-51
2022/03/27 02:58:00;;;;;;;21.30;18.60;;;7.00;99.90;;;;;;5072311;28;20816;-51
2022/03/27 03:00:27;;;;;;;25.40;19.70;;;7.00;99.90;;;;;;5071893;28;20431;-51
2022/03/27 03:02:54;;;;;;;21.83;19.53;;;7.00;99.90;;;;;;5072524;28;20431;-51
2022/03/27 03:05:23;;;;;;;26.80;20.73;;;7.00;99.90;;;;;;5072179;28;20825;-51
2022/03/27 03:07:51;;;;;;;22.77;19.83;;;7.00;99.90;;;;;;5072289;28;20527;-51
2022/03/27 03:10:18;;;;;;;26.60;20.57;;;6.90;99.90;;;;;;5071917;28;20907;-51
2022/03/27 03:12:45;;;;;;;27.90;22.10;;;6.90;99.90;;;;;;5072253;28;20435;-51
2022/03/27 03:15:13;;;;;;;24.70;20.40;;;6.90;99.90;;;;;;5071979;28;21008;-51
2022/03/27 03:17:40;;;;;;;22.60;20.23;;;6.90;99.90;;;;;;5071694;28;20435;-51
2022/03/27 03:20:07;;;;;;;27.50;20.90;;;6.90;99.90;;;;;;5071502;28;20434;-51
2022/03/27 03:22:37;;;;;;;24.10;21.60;;;6.80;99.90;;;;;;5072275;28;20501;-51
2022/03/27 03:25:05;;;;;;;28.67;23.23;;;6.80;99.90;;;;;;5071960;28;20438;-51
2022/03/27 03:27:31;;;;;;;26.83;21.10;;;6.80;99.90;;;;;;5071957;28;20478;-52
2022/03/27 03:29:59;;;;;;;23.47;20.30;;;6.80;99.90;;;;;;5071487;28;20438;-52
2022/03/27 03:32:26;;;;;;;27.37;21.87;;;6.80;99.90;;;;;;5071633;28;20447;-52
2022/03/27 03:34:53;;;;;;;25.07;22.00;;;6.70;99.90;;;;;;5071512;28;20666;-51
2022/03/27 03:37:20;;;;;;;27.80;21.07;;;6.70;99.90;;;;;;5071905;28;20434;-51
2022/03/27 03:39:48;;;;;;;23.83;21.43;;;6.70;99.90;;;;;;5071466;28;20779;-52
2022/03/27 03:42:14;;;;;;;26.17;22.40;;;6.70;99.90;;;;;;5071756;28;20435;-51
2022/03/27 03:44:43;;;;;;;22.70;20.17;;;6.70;99.90;;;;;;5071677;28;20459;-51
2022/03/27 03:47:10;;;;;;;25.20;22.23;;;6.60;99.90;;;;;;5071407;28;20841;-51
2022/03/27 03:49:37;;;;;;;25.73;22.97;;;6.60;99.90;;;;;;5071151;28;20478;-51
2022/03/27 03:52:05;;;;;;;28.77;23.00;;;6.60;99.90;;;;;;5071686;28;20450;-51
2022/03/27 03:54:31;;;;;;;27.30;21.87;;;6.60;99.90;;;;;;5071333;28;20990;-51
2022/03/27 03:56:59;;;;;;;27.10;23.40;;;6.50;99.90;;;;;;5070206;28;20446;-51
2022/03/27 03:59:26;;;;;;;28.43;24.67;;;6.50;99.90;;;;;;5071416;28;20413;-51
2022/03/27 04:01:52;;;;;;;27.97;24.10;;;6.50;99.90;;;;;;5071137;28;20437;-51
2022/03/27 04:04:19;;;;;;;29.07;23.80;;;6.50;99.90;;;;;;5071412;28;20817;-52
2022/03/27 04:06:45;;;;;;;31.37;26.73;;;6.50;99.90;;;;;;5071301;28;20528;-52
2022/03/27 04:09:12;;;;;;;27.80;23.83;;;6.50;99.90;;;;;;5070879;28;20410;-52
2022/03/27 04:11:39;;;;;;;29.00;22.83;;;6.50;99.90;;;;;;5071433;28;20809;-52
2022/03/27 04:14:07;;;;;;;28.50;23.90;;;6.50;99.90;;;;;;5071074;28;20462;-51
2022/03/27 04:16:33;;;;;;;27.70;22.63;;;6.40;99.90;;;;;;5071166;28;20979;-51
2022/03/27 04:19:00;;;;;;;28.27;25.27;;;6.40;99.90;;;;;;5071156;28;20416;-51
2022/03/27 04:21:27;;;;;;;30.60;23.60;;;6.40;99.90;;;;;;5071202;28;20441;-52
2022/03/27 04:23:54;;;;;;;27.87;24.03;;;6.40;99.90;;;;;;5071201;28;20935;-51
2022/03/27 04:26:20;;;;;;;27.90;22.60;;;6.40;99.90;;;;;;5071147;28;20465;-51
2022/03/27 04:28:47;;;;;;;29.83;24.20;;;6.30;99.90;;;;;;5071102;28;20438;-51
2022/03/27 04:31:15;;;;;;;24.63;21.40;;;6.40;99.90;;;;;;5071703;28;20439;-51
2022/03/27 04:33:42;;;;;;;29.80;25.27;;;6.30;99.90;;;;;;5071416;28;20426;-51
2022/03/27 04:36:09;;;;;;;29.70;23.87;;;6.30;99.90;;;;;;5071508;28;20449;-51
2022/03/27 04:38:36;;;;;;;28.30;24.30;;;6.30;99.90;;;;;;5071268;28;20442;-51
2022/03/27 04:41:03;;;;;;;28.80;24.97;;;6.30;99.90;;;;;;5070290;28;20922;-51
2022/03/27 04:43:32;;;;;;;30.67;23.53;;;6.30;99.90;;;;;;5071009;28;20477;-51
2022/03/27 04:45:59;;;;;;;28.77;24.60;;;6.20;99.90;;;;;;5070727;28;20459;-51
2022/03/27 04:48:27;;;;;;;31.33;24.27;;;6.20;99.90;;;;;;5070852;28;20408;-51
2022/03/27 04:50:54;;;;;;;27.70;23.77;;;6.20;99.90;;;;;;5069691;28;20551;-52
2022/03/27 04:53:21;;;;;;;30.40;24.83;;;6.20;99.90;;;;;;5070967;28;20431;-51
2022/03/27 04:55:48;;;;;;;27.47;23.93;;;6.20;99.90;;;;;;5071005;28;20860;-51
2022/03/27 04:58:16;;;;;;;29.50;25.10;;;6.20;99.90;;;;;;5070805;28;20843;-51
2022/03/27 05:00:43;;;;;;;30.77;24.80;;;6.20;99.90;;;;;;5070458;28;20425;-51
2022/03/27 05:03:11;;;;;;;30.13;25.60;;;6.20;99.90;;;;;;5070892;28;20430;-52
2022/03/27 05:05:39;;;;;;;33.33;25.37;;;6.20;99.90;;;;;;5070880;28;20454;-51
2022/03/27 05:08:06;;;;;;;29.53;24.40;;;6.20;99.90;;;;;;5071082;28;20525;-51
2022/03/27 05:10:33;;;;;;;30.00;24.43;;;6.20;99.90;;;;;;5070276;28;20934;-51
2022/03/27 05:13:00;;;;;;;32.23;24.23;;;6.20;99.90;;;;;;5073426;28;20457;-51
2022/03/27 05:15:27;;;;;;;28.33;25.23;;;6.20;99.90;;;;;;5086042;22;20487;-46
2022/03/27 05:17:58;;;;;;;26.53;23.13;;;6.20;99.90;;;;;;5054797;28;20427;-46
2022/03/27 05:20:26;;;;;;;26.53;23.60;;;6.20;99.90;;;;;;5054324;28;20874;-46
2022/03/27 05:22:54;;;;;;;32.57;22.47;;;6.20;99.90;;;;;;5054666;28;20983;-46
2022/03/27 05:25:21;;;;;;;29.87;24.50;;;6.30;99.90;;;;;;5054310;28;20451;-45
2022/03/27 05:27:50;;;;;;;34.13;25.90;;;6.30;99.90;;;;;;5054565;28;20487;-46
2022/03/27 05:30:18;;;;;;;29.20;25.27;;;6.30;99.90;;;;;;5052852;28;20455;-45
2022/03/27 05:32:46;;;;;;;29.50;23.57;;;6.30;99.90;;;;;;5054408;28;20416;-45
2022/03/27 05:35:13;;;;;;;29.17;24.47;;;6.30;99.90;;;;;;5054176;28;20989;-46
2022/03/27 05:37:41;;;;;;;29.60;24.40;;;6.30;99.90;;;;;;5053995;28;20434;-46
2022/03/27 05:40:12;;;;;;;29.27;24.83;;;6.40;99.90;;;;;;5053623;28;20938;-46
2022/03/27 05:42:39;;;;;;;32.43;26.20;;;6.50;99.90;;;;;;5054287;28;20436;-46
2022/03/27 05:45:08;;;;;;;36.73;26.33;;;6.50;99.90;;;;;;5053960;28;20475;-46
2022/03/27 05:47:37;;;;;;;30.40;27.10;;;6.50;99.90;;;;;;5054041;28;20476;-45
2022/03/27 05:50:05;;;;;;;29.47;26.27;;;6.60;99.90;;;;;;5053597;28;20435;-46
2022/03/27 05:52:32;;;;;;;28.67;25.73;;;6.60;99.90;;;;;;5053951;28;20442;-47
2022/03/27 05:54:58;;;;;;;30.90;27.53;;;6.70;99.90;;;;;;5053816;28;20447;-46
2022/03/27 05:57:27;;;;;;;40.30;26.87;;;6.70;99.90;;;;;;5054029;28;20506;-45
2022/03/27 05:59:53;;;;;;;32.80;27.07;;;6.80;99.90;;;;;;5053469;28;20405;-46
2022/03/27 06:02:20;;;;;;;31.50;27.10;;;6.90;99.90;;;;;;5069226;28;20451;-46
2022/03/27 06:04:47;;;;;;;38.07;31.30;;;7.00;99.90;;;;;;5053941;28;20456;-46
2022/03/27 06:07:13;;;;;;;34.27;28.77;;;7.10;99.90;;;;;;5054369;28;20487;-45
2022/03/27 06:09:40;;;;;;;34.90;28.93;;;7.20;99.90;;;;;;5053623;28;20428;-45
2022/03/27 06:12:07;;;;;;;31.70;28.40;;;7.30;99.90;;;;;;5053758;28;20798;-46
2022/03/27 06:14:35;;;;;;;35.73;28.27;;;7.40;99.90;;;;;;5053973;28;20495;-45
2022/03/27 06:17:03;;;;;;;32.47;26.57;;;7.50;99.90;;;;;;5053626;28;20424;-45
2022/03/27 06:19:30;;;;;;;35.80;27.60;;;7.60;99.90;;;;;;5053026;28;20440;-46
2022/03/27 06:21:57;;;;;;;33.77;28.67;;;7.70;99.90;;;;;;5053276;28;20441;-45
2022/03/27 06:24:24;;;;;;;32.50;29.00;;;7.80;99.90;;;;;;5052936;28;20448;-46
2022/03/27 06:26:51;;;;;;;32.20;28.90;;;7.90;99.90;;;;;;5053180;28;20508;-46
2022/03/27 06:29:18;;;;;;;30.90;25.37;;;8.00;99.90;;;;;;5052771;28;20456;-45
2022/03/27 06:31:46;;;;;;;30.07;26.87;;;8.10;99.90;;;;;;5053526;28;20412;-46
2022/03/27 06:34:12;;;;;;;31.30;26.53;;;8.10;99.90;;;;;;5053009;28;20426;-46
2022/03/27 06:36:41;;;;;;;31.60;26.33;;;8.30;99.90;;;;;;5053236;28;20801;-46
2022/03/27 06:39:09;;;;;;;29.63;26.50;;;8.30;99.90;;;;;;5052637;28;20498;-46
2022/03/27 06:41:36;;;;;;;28.70;24.30;;;8.40;99.90;;;;;;5051697;28;20421;-46
2022/03/27 06:44:03;;;;;;;27.70;24.80;;;8.50;99.90;;;;;;5052938;28;20483;-47
2022/03/27 06:46:31;;;;;;;28.23;25.03;;;8.60;99.90;;;;;;5052593;28;20477;-46
2022/03/27 06:48:58;;;;;;;29.50;26.50;;;8.60;99.90;;;;;;5052720;28;20508;-46
2022/03/27 06:51:25;;;;;;;26.37;23.80;;;8.70;99.90;;;;;;5053337;28;20437;-46
2022/03/27 06:53:52;;;;;;;24.70;22.20;;;8.80;99.90;;;;;;5052841;28;20442;-46
2022/03/27 06:56:18;;;;;;;30.40;23.17;;;8.80;99.90;;;;;;5052728;28;20457;-46
2022/03/27 06:58:45;;;;;;;24.93;21.67;;;8.90;99.90;;;;;;5052648;28;20426;-46
2022/03/27 07:03:55;;;;;;;26.30;23.20;;;9.00;99.90;;;;;;5052894;28;20430;-46
2022/03/27 07:06:23;;;;;;;26.83;22.67;;;9.10;99.90;;;;;;5052647;28;20454;-47
2022/03/27 07:08:50;;;;;;;28.97;24.50;;;9.20;99.90;;;;;;5052213;28;20453;-47
2022/03/27 07:11:16;;;;;;;24.63;21.50;;;9.20;99.90;;;;;;5052839;28;20431;-45
2022/03/27 07:13:43;;;;;;;27.07;22.43;;;9.30;99.90;;;;;;5053164;28;21222;-45
2022/03/27 07:16:10;;;;;;;25.63;22.30;;;9.30;99.90;;;;;;5053599;28;20458;-45
2022/03/27 07:18:37;;;;;;;27.40;22.67;;;9.30;99.90;;;;;;5052990;28;20533;-45
2022/03/27 07:21:03;;;;;;;27.57;22.63;;;9.40;99.90;;;;;;5053740;28;20430;-46
2022/03/27 07:23:31;;;;;;;25.97;21.87;;;9.40;99.90;;;;;;5052599;28;20442;-46
2022/03/27 07:25:58;;;;;;;28.00;21.63;;;9.50;99.90;;;;;;5051802;28;20429;-46
2022/03/27 07:28:28;;;;;;;24.30;21.90;;;9.50;99.90;;;;;;5067217;28;20510;-46
2022/03/27 07:30:55;;;;;;;26.67;21.30;;;9.50;99.90;;;;;;5052515;28;20405;-46
2022/03/27 07:33:22;;;;;;;23.83;21.33;;;9.50;99.90;;;;;;5051795;28;20458;-46
2022/03/27 07:35:48;;;;;;;25.63;22.57;;;9.60;99.90;;;;;;5050874;28;20855;-46
2022/03/27 07:38:16;;;;;;;23.50;21.00;;;9.60;99.90;;;;;;5052016;28;20476;-46
2022/03/27 07:40:45;;;;;;;25.33;22.03;;;9.60;99.90;;;;;;5051888;28;20533;-46
2022/03/27 07:43:11;;;;;;;23.93;21.23;;;9.70;99.90;;;;;;5052317;28;20555;-46
2022/03/27 07:45:38;;;;;;;22.23;20.00;;;9.70;99.90;;;;;;5052154;28;20454;-46
2022/03/27 07:48:06;;;;;;;25.60;19.67;;;9.70;99.90;;;;;;5051589;28;20481;-46
2022/03/27 07:50:33;;;;;;;22.80;20.30;;;9.80;99.90;;;;;;5051578;28;20426;-46
2022/03/27 07:53:01;;;;;;;23.97;21.37;;;9.80;99.90;;;;;;5051787;28;20920;-46
2022/03/27 07:55:28;;;;;;;22.10;19.63;;;9.90;99.90;;;;;;5051800;28;20468;-46
2022/03/27 07:57:56;;;;;;;20.73;17.80;;;10.00;99.90;;;;;;5066926;28;20442;-46
2022/03/27 08:00:23;;;;;;;20.73;18.40;;;10.00;99.90;;;;;;5051331;28;20450;-45
2022/03/27 08:02:51;;;;;;;21.13;18.00;;;10.00;99.90;;;;;;5051658;28;20446;-47
2022/03/27 08:05:17;;;;;;;23.90;19.70;;;10.00;99.90;;;;;;5051528;28;20504;-48
2022/03/27 08:07:45;;;;;;;22.90;18.80;;;10.10;99.90;;;;;;5051546;28;20477;-45
2022/03/27 08:10:14;;;;;;;21.03;18.73;;;10.10;99.90;;;;;;5051448;28;20452;-46
2022/03/27 08:12:40;;;;;;;20.87;18.63;;;10.20;99.90;;;;;;5051508;28;20424;-45
2022/03/27 08:15:09;;;;;;;21.17;18.97;;;10.20;99.90;;;;;;5051543;28;20470;-46
2022/03/27 08:17:36;;;;;;;19.57;16.93;;;10.30;99.90;;;;;;5052047;28;20446;-45
2022/03/27 08:20:04;;;;;;;21.53;17.80;;;10.30;99.90;;;;;;5051751;28;20446;-45
2022/03/27 08:22:30;;;;;;;21.70;17.90;;;10.40;99.90;;;;;;5051907;28;20442;-45
2022/03/27 08:24:57;;;;;;;22.93;20.10;;;10.40;99.90;;;;;;5051747;28;21005;-45
2022/03/27 08:27:22;;;;;;;18.87;16.90;;;10.40;99.90;;;;;;5051064;28;20474;-46
2022/03/27 08:29:50;;;;;;;20.37;17.80;;;10.50;99.90;;;;;;5051035;28;20449;-44
2022/03/27 08:32:18;;;;;;;15.50;13.90;;;10.50;99.90;;;;;;5051367;28;20208;-46
2022/03/27 08:34:47;;;;;;;15.70;13.80;;;10.60;99.90;;;;;;5051970;28;20473;-46
2022/03/27 08:37:16;;;;;;;19.07;16.67;;;10.60;99.90;;;;;;5051599;28;20435;-46
2022/03/27 08:39:44;;;;;;;18.93;14.83;;;10.70;99.90;;;;;;5052213;28;20959;-45
2022/03/27 08:42:12;;;;;;;17.30;14.93;;;10.70;99.90;;;;;;5051540;28;20446;-45
2022/03/27 08:44:38;;;;;;;17.40;15.13;;;10.80;99.90;;;;;;5051424;28;20447;-45
2022/03/27 08:47:10;;;;;;;17.87;15.93;;;10.90;99.90;;;;;;5052889;28;20862;-48
2022/03/27 08:49:47;;;;;;;18.40;15.07;;;10.90;99.90;;;;;;5055072;28;21100;-46
2022/03/27 08:52:35;;;;;;;15.77;14.00;;;11.00;99.90;;;;;;5055154;28;20420;-45
2022/03/27 08:55:06;;;;;;;19.57;14.70;;;11.10;99.90;;;;;;5036937;28;20920;-47
2022/03/27 08:57:50;;;;;;;15.17;13.67;;;11.10;99.90;;;;;;5055054;28;20450;-48
2022/03/27 09:00:20;;;;;;;14.03;12.60;;;11.20;99.90;;;;;;5054897;28;20441;-47
2022/03/27 09:02:47;;;;;;;18.43;14.47;;;11.20;99.90;;;;;;5055150;28;20806;-47
2022/03/27 09:05:20;;;;;;;13.87;12.40;;;11.30;99.90;;;;;;5054945;28;20824;-46
2022/03/27 09:07:48;;;;;;;13.20;11.17;;;11.30;99.90;;;;;;5054589;28;20478;-46
2022/03/27 09:10:15;;;;;;;16.83;12.27;;;11.30;99.90;;;;;;5054725;28;20959;-46
2022/03/27 09:12:43;;;;;;;14.90;12.90;;;11.40;99.90;;;;;;5054940;28;20439;-46
2022/03/27 09:15:12;;;;;;;14.70;13.20;;;11.50;99.90;;;;;;5054454;28;20505;-48
2022/03/27 09:17:57;;;;;;;16.10;14.37;;;11.50;99.90;;;;;;5054681;28;20435;-46
2022/03/27 09:20:34;;;;;;;14.50;13.00;;;11.50;99.90;;;;;;5054023;28;20923;-48
2022/03/27 09:23:23;;;;;;;16.80;13.87;;;11.60;99.90;;;;;;5054724;28;20439;-48
2022/03/27 09:25:53;;;;;;;15.73;12.80;;;11.70;99.90;;;;;;5051893;28;20573;-47
2022/03/27 09:28:25;;;;;;;15.37;13.87;;;11.60;99.90;;;;;;5054124;28;20477;-47
2022/03/27 09:30:53;;;;;;;18.60;14.00;;;11.70;99.90;;;;;;5054258;28;20465;-46
2022/03/27 09:33:38;;;;;;;12.60;10.80;;;11.70;99.90;;;;;;5054385;28;20435;-47
2022/03/27 09:36:08;;;;;;;14.67;13.10;;;11.70;99.90;;;;;;5054073;28;20499;-47
2022/03/27 09:38:35;;;;;;;17.70;15.90;;;11.80;99.90;;;;;;5053787;28;20430;-46
2022/03/27 09:41:01;;;;;;;16.13;14.13;;;11.90;99.90;;;;;;5054129;28;21007;-46
2022/03/27 09:43:28;;;;;;;14.60;13.13;;;12.00;99.90;;;;;;5053842;28;20746;-47
2022/03/27 09:45:56;;;;;;;16.93;14.73;;;12.10;99.90;;;;;;5053916;28;20455;-47
2022/03/27 09:48:23;;;;;;;15.00;13.47;;;12.20;99.90;;;;;;5053711;28;20473;-49
2022/03/27 09:50:52;;;;;;;15.40;13.90;;;12.30;99.90;;;;;;5053828;28;20443;-46
2022/03/27 09:53:22;;;;;;;15.00;13.50;;;12.40;99.90;;;;;;5053685;28;20514;-46
2022/03/27 09:56:07;;;;;;;16.67;12.73;;;12.50;99.90;;;;;;5053718;28;20798;-47
2022/03/27 09:58:36;;;;;;;12.60;10.90;;;12.50;99.90;;;;;;5051003;28;20539;-46
2022/03/27 10:01:13;;;;;;;11.83;10.63;;;12.60;99.90;;;;;;5053618;28;20430;-49
2022/03/27 10:04:07;;;;;;;12.63;11.33;;;12.50;99.90;;;;;;5053614;28;20437;-47
2022/03/27 10:06:36;;;;;;;10.97;9.77;;;12.40;99.90;;;;;;5053882;28;20778;-48
2022/03/27 10:09:05;;;;;;;10.63;9.53;;;12.40;99.90;;;;;;5052777;28;20509;-46
2022/03/27 10:11:34;;;;;;;13.83;10.70;;;12.30;99.90;;;;;;5053418;28;20433;-47
2022/03/27 10:14:01;;;;;;;11.03;9.90;;;12.30;99.90;;;;;;5053558;28;20436;-48
2022/03/27 10:16:29;;;;;;;10.30;8.63;;;12.30;99.90;;;;;;5053403;28;20464;-46
2022/03/27 10:18:58;;;;;;;14.43;8.93;;;12.20;99.90;;;;;;5052250;28;20471;-47
2022/03/27 10:21:26;;;;;;;10.80;9.00;;;12.30;99.90;;;;;;5053341;28;20445;-47
2022/03/27 10:24:03;;;;;;;10.73;9.00;;;12.30;99.90;;;;;;5052191;28;20452;-47
2022/03/27 10:26:33;;;;;;;13.80;9.50;;;12.30;99.90;;;;;;5053462;28;20439;-46
2022/03/27 10:29:01;;;;;;;10.40;8.23;;;12.40;99.90;;;;;;5052106;28;20470;-46
2022/03/27 10:31:30;;;;;;;9.23;8.33;;;12.50;99.90;;;;;;5053085;28;20440;-46
2022/03/27 10:33:58;;;;;;;11.47;9.70;;;12.50;99.90;;;;;;5052718;28;20524;-46
2022/03/27 10:36:31;;;;;;;9.53;8.63;;;12.60;99.90;;;;;;5052640;28;20463;-46
2022/03/27 10:39:05;;;;;;;10.50;9.50;;;12.60;99.90;;;;;;5052257;28;20437;-47
2022/03/27 10:41:37;;;;;;;9.63;8.63;;;12.70;99.90;;;;;;5052882;28;20428;-45
2022/03/27 10:44:11;;;;;;;9.10;8.30;;;12.70;99.90;;;;;;5052833;28;20444;-46
2022/03/27 10:46:38;;;;;;;7.90;6.70;;;12.80;99.90;;;;;;5052535;28;20435;-45
2022/03/27 10:49:12;;;;;;;8.33;7.53;;;12.80;99.90;;;;;;5052446;28;20530;-47
2022/03/27 10:51:41;;;;;;;9.87;8.03;;;12.80;99.70;;;;;;5052990;28;20435;-47
2022/03/27 10:54:10;;;;;;;9.37;8.37;;;12.90;99.40;;;;;;5052595;28;20539;-46
2022/03/27 10:56:40;;;;;;;8.67;7.77;;;13.00;98.90;;;;;;5053142;28;20432;-47
2022/03/27 10:59:09;;;;;;;7.53;6.80;;;13.00;99.10;;;;;;5052353;28;20430;-46
2022/03/27 11:01:38;;;;;;;13.73;7.53;;;13.10;98.60;;;;;;5052448;28;20441;-47
2022/03/27 11:04:06;;;;;;;10.93;7.47;;;13.10;98.70;;;;;;5052504;28;20445;-47
2022/03/27 11:06:37;;;;;;;11.70;9.40;;;13.10;98.70;;;;;;5052293;28;20454;-47
2022/03/27 11:09:05;;;;;;;7.57;6.73;;;13.20;98.90;;;;;;5051183;28;20862;-45
2022/03/27 11:11:56;;;;;;;7.67;6.90;;;13.20;97.80;;;;;;5052209;28;20480;-46
2022/03/27 11:17:13;;;;;;;8.83;7.10;;;13.20;97.60;;;;;;5029915;28;20497;-49
2022/03/27 11:19:42;;;;;;;8.00;7.30;;;13.30;97.30;;;;;;5030919;28;20907;-50
2022/03/27 11:22:44;;;;;;;10.03;8.27;;;13.30;97.20;;;;;;5031376;28;20449;-51
2022/03/27 11:25:31;;;;;;;10.73;9.33;;;13.20;96.80;;;;;;5031422;28;20458;-49
2022/03/27 11:28:06;;;;;;;8.80;7.90;;;13.30;97.30;;;;;;5031265;28;20895;-50
2022/03/27 11:30:35;;;;;;;10.07;8.07;;;13.30;97.40;;;;;;5031108;28;20512;-50
2022/03/27 11:33:15;;;;;;;10.77;7.43;;;13.30;97.20;;;;;;5031333;28;20468;-51
2022/03/27 11:36:03;;;;;;;8.10;6.87;;;13.40;96.70;;;;;;5031331;28;20853;-49
2022/03/27 11:38:33;;;;;;;9.40;6.77;;;13.40;96.50;;;;;;5030775;28;20445;-49
2022/03/27 11:41:25;;;;;;;9.10;7.20;;;13.30;95.90;;;;;;5013505;28;20459;-49
2022/03/27 11:43:53;;;;;;;7.20;6.10;;;13.40;95.00;;;;;;5030999;28;20964;-50
2022/03/27 11:46:24;;;;;;;7.50;6.20;;;13.40;95.60;;;;;;5031016;28;20803;-50
2022/03/27 11:48:54;;;;;;;10.20;6.80;;;13.40;95.20;;;;;;5030686;28;20482;-50
2022/03/27 11:51:21;;;;;;;11.37;6.60;;;13.50;94.90;;;;;;5030889;28;20481;-50
2022/03/27 11:53:49;;;;;;;8.57;6.73;;;13.60;94.80;;;;;;5030360;28;21031;-49
2022/03/27 11:56:16;;;;;;;8.53;7.60;;;13.60;94.80;;;;;;5030804;28;20551;-49
2022/03/27 11:58:42;;;;;;;7.90;7.10;;;13.70;94.80;;;;;;5030348;28;20938;-50
2022/03/27 12:01:11;;;;;;;8.30;7.47;;;13.80;94.70;;;;;;5030511;28;20446;-50
2022/03/27 12:03:39;;;;;;;9.20;6.97;;;13.80;94.60;;;;;;5030553;28;20934;-50
2022/03/27 12:06:07;;;;;;;8.40;6.90;;;13.80;94.50;;;;;;5012726;28;20467;-50
2022/03/27 12:08:35;;;;;;;9.87;6.37;;;13.70;94.40;;;;;;5030199;28;20472;-50
2022/03/27 12:11:15;;;;;;;12.20;10.60;;;13.70;94.20;;;;;;5031088;28;20570;-50
2022/03/27 12:13:43;;;;;;;7.13;5.90;;;13.80;94.30;;;;;;5030644;28;20432;-50
2022/03/27 12:16:16;;;;;;;7.10;6.10;;;13.80;94.30;;;;;;5030479;28;21013;-49
2022/03/27 12:18:44;;;;;;;7.10;6.03;;;13.90;94.20;;;;;;5030027;28;20527;-52
2022/03/27 12:21:12;;;;;;;9.30;6.10;;;13.90;94.10;;;;;;5031962;28;20550;-50
2022/03/27 12:23:40;;;;;;;5.87;5.37;;;13.80;93.80;;;;;;5034697;28;20451;-49
2022/03/27 12:32:11;;;;;;;7.50;4.93;;;13.80;92.10;;;;;;4953594;29;20449;-50
2022/03/27 12:34:41;;;;;;;4.60;4.20;;;13.80;92.70;;;;;;5025992;28;20934;-50
2022/03/27 12:37:11;;;;;;;5.70;4.83;;;13.80;92.60;;;;;;5034181;28;20435;-50
2022/03/27 12:39:40;;;;;;;6.57;5.00;;;13.80;92.30;;;;;;5033708;28;20431;-49
2022/03/27 12:42:28;;;;;;;5.20;4.70;;;13.80;92.30;;;;;;5034482;28;20856;-50
2022/03/27 12:44:54;;;;;;;6.87;5.67;;;13.90;92.50;;;;;;5033827;28;20480;-50
2022/03/27 12:47:31;;;;;;;5.23;4.73;;;13.90;92.10;;;;;;5033760;28;20506;-52
2022/03/27 12:49:57;;;;;;;5.23;4.70;;;13.90;92.10;;;;;;5033554;28;20482;-50
2022/03/27 12:52:24;;;;;;;4.77;4.37;;;13.90;91.40;;;;;;5033937;28;20445;-49
2022/03/27 12:54:59;;;;;;;6.33;4.43;;;13.90;91.10;;;;;;5033816;28;20469;-50
2022/03/27 12:57:52;;;;;;;5.27;4.10;;;14.00;91.00;;;;;;5033919;28;20461;-50